Time;durP1;ratioP1;P1;durP2;ratioP2;P2;SDS_P1;SDS_P2;PMS_P1;PMS_P2;Temp;Humidity;BMP_temperature;BMP_pressure;BME280_temperature;BME280_humidity;BME280_pressure;Samples;Min_cycle;Max_cycle;Signal;HPM_P1;HPM_P2
2024/03/22 00:00:53;;;;;;;;;10.00;10.00;;;;;23.96;43.45;102309.56;4936994;28;45373;-79
2024/03/22 00:03:19;;;;;;;;;8.33;8.00;;;;;24.09;43.53;102337.56;4937042;28;45381;-79
2024/03/22 00:05:44;;;;;;;;;10.67;8.67;;;;;24.09;43.36;102332.22;4936562;28;46900;-80
2024/03/22 00:08:10;;;;;;;;;9.00;8.67;;;;;24.09;43.53;102327.75;4936904;28;45397;-80
2024/03/22 00:10:35;;;;;;;;;8.00;8.00;;;;;24.07;43.53;102321.78;4936988;28;45285;-80
2024/03/22 00:13:01;;;;;;;;;7.00;5.00;;;;;24.07;43.59;102311.94;4935634;28;45521;-80
2024/03/22 00:15:26;;;;;;;;;9.00;9.00;;;;;23.89;43.56;102289.94;4936884;28;45423;-80
2024/03/22 00:17:51;;;;;;;;;9.00;8.33;;;;;24.05;43.35;102313.94;4936644;28;45433;-80
2024/03/22 00:20:16;;;;;;;;;8.00;8.00;;;;;23.95;43.60;102295.44;4936486;28;45338;-80
2024/03/22 00:22:42;;;;;;;;;10.33;10.00;;;;;24.02;43.49;102300.13;4936830;28;45299;-80
2024/03/22 00:25:07;;;;;;;;;8.75;8.75;;;;;23.95;43.48;102283.97;4936374;28;48777;-80
2024/03/22 00:27:33;;;;;;;;;7.00;6.00;;;;;24.05;43.14;102289.16;4938621;28;45417;-79
2024/03/22 00:29:58;;;;;;;;;10.00;8.00;;;;;23.99;43.35;102289.81;4940042;28;45271;-79
2024/03/22 00:32:23;;;;;;;;;10.00;8.00;;;;;24.00;43.55;102294.13;4940019;28;45540;-79
2024/03/22 00:34:49;;;;;;;;;10.33;8.33;;;;;23.71;43.62;102254.44;4939684;28;45995;-80
2024/03/22 00:37:14;;;;;;;;;7.00;7.00;;;;;24.02;43.90;102300.94;4929302;28;45494;-79
2024/03/22 00:39:39;;;;;;;;;8.33;7.00;;;;;23.99;43.48;102292.47;4901795;28;45290;-79
2024/03/22 00:42:04;;;;;;;;;9.00;9.00;;;;;24.00;43.39;102297.63;4934603;28;45211;-80
2024/03/22 00:44:30;;;;;;;;;9.67;9.00;;;;;23.92;43.60;102274.50;4939619;28;45319;-79
2024/03/22 00:46:55;;;;;;;;;9.33;8.00;;;;;23.78;43.42;102259.13;4938302;28;45502;-79
2024/03/22 00:49:20;;;;;;;;;6.00;6.00;;;;;23.97;43.46;102279.31;4939442;28;45338;-80
2024/03/22 00:51:47;;;;;;;;;8.00;8.00;;;;;23.99;43.28;102279.19;4939770;28;45287;-80
2024/03/22 00:54:12;;;;;;;;;6.00;6.00;;;;;23.98;43.52;102277.50;4939663;28;46342;-80
2024/03/22 00:56:38;;;;;;;;;9.67;8.00;;;;;23.99;43.70;102279.19;4939386;28;45266;-79
2024/03/22 00:59:03;;;;;;;;;7.67;7.67;;;;;23.90;43.48;102257.88;4939603;28;45325;-79
2024/03/22 01:01:28;;;;;;;;;6.33;6.33;;;;;23.90;43.56;102247.25;4939634;28;45371;-80
2024/03/22 01:03:53;;;;;;;;;10.00;7.67;;;;;23.96;43.30;102251.09;4939250;28;46374;-80
2024/03/22 01:06:24;;;;;;;;;9.00;6.00;;;;;24.00;43.27;102252.44;4939288;28;45505;-80
2024/03/22 01:08:51;;;;;;;;;8.00;8.00;;;;;24.01;43.21;102261.25;4939555;28;45397;-80
2024/03/22 01:11:16;;;;;;;;;9.33;9.00;;;;;23.90;43.15;102230.44;4939382;28;45253;-80
2024/03/22 01:13:41;;;;;;;;;7.00;7.00;;;;;24.00;43.33;102238.28;4939177;28;46162;-80
2024/03/22 01:16:09;;;;;;;;;7.00;7.00;;;;;23.91;43.18;102226.81;4939386;28;45402;-80
2024/03/22 01:18:35;;;;;;;;;10.00;8.33;;;;;23.94;43.29;102235.28;4939075;28;45309;-80
2024/03/22 01:21:00;;;;;;;;;8.67;8.00;;;;;23.99;43.40;102240.16;4939339;28;45298;-80
2024/03/22 01:23:25;;;;;;;;;8.33;7.00;;;;;23.99;43.12;102236.66;4939012;28;46831;-80
2024/03/22 01:25:51;;;;;;;;;9.33;7.00;;;;;23.98;43.40;102233.16;4939048;28;45408;-81
2024/03/22 01:28:16;;;;;;;;;8.00;8.00;;;;;23.92;43.19;102218.66;4938930;28;46944;-80
2024/03/22 01:30:43;;;;;;;;;12.00;9.33;;;;;23.96;43.37;102233.31;4938985;28;48375;-80
2024/03/22 01:33:08;;;;;;;;;8.67;8.67;;;;;23.95;43.32;102229.00;4938481;28;47085;-78
2024/03/22 01:35:33;;;;;;;;;9.00;7.33;;;;;23.95;43.34;102226.31;4938786;28;46284;-81
2024/03/22 01:37:59;;;;;;;;;7.00;7.00;;;;;23.78;43.41;102198.03;4917358;28;45217;-81
2024/03/22 01:40:24;;;;;;;;;11.00;10.00;;;;;23.94;43.46;102226.50;4907281;28;45352;-81
2024/03/22 01:42:53;;;;;;;;;6.00;5.67;;;;;23.95;43.31;102228.16;4938845;28;45240;-79
2024/03/22 01:45:19;;;;;;;;;6.33;6.33;;;;;23.68;43.31;102190.19;4938848;28;45376;-80
2024/03/22 01:47:45;;;;;;;;;6.67;5.67;;;;;23.95;43.37;102228.16;4938364;28;45413;-80
2024/03/22 01:50:11;;;;;;;;;7.33;7.33;;;;;23.90;43.55;102218.00;4938717;28;45401;-80
2024/03/22 01:52:38;;;;;;;;;7.33;7.33;;;;;23.94;43.22;102229.16;4938591;28;47103;-80
2024/03/22 01:55:06;;;;;;;;;8.33;8.33;;;;;23.66;43.26;102176.19;4938733;28;45369;-80
2024/03/22 01:57:33;;;;;;;;;9.33;9.33;;;;;23.79;43.35;102195.19;4938626;28;45362;-80
2024/03/22 01:59:59;;;;;;;;;8.00;8.00;;;;;23.85;43.20;102202.53;4938670;28;45383;-80
2024/03/22 02:02:25;;;;;;;;;10.00;9.00;;;;;23.83;43.16;102195.72;4938138;28;47124;-80
2024/03/22 02:04:51;;;;;;;;;9.33;7.67;;;;;23.92;43.77;102204.53;4938429;28;45403;-80
2024/03/22 02:07:17;;;;;;;;;10.00;9.00;;;;;23.82;43.17;102189.56;4938651;28;45269;-80
2024/03/22 02:09:42;;;;;;;;;9.00;7.00;;;;;23.91;43.08;102203.72;4938488;28;45557;-80
2024/03/22 02:12:09;;;;;;;;;7.00;7.00;;;;;23.79;43.34;102179.25;4938347;28;46154;-79
2024/03/22 02:14:34;;;;;;;;;6.00;6.00;;;;;23.87;43.13;102196.22;4938566;28;45224;-80
2024/03/22 02:16:59;;;;;;;;;11.33;9.33;;;;;23.87;43.30;102193.56;4938019;28;45357;-80
2024/03/22 02:19:25;;;;;;;;;8.00;6.33;;;;;23.87;43.23;102194.41;4938581;28;45262;-80
2024/03/22 02:21:50;;;;;;;;;6.67;6.67;;;;;23.88;43.25;102192.56;4938293;28;46063;-80
2024/03/22 02:24:15;;;;;;;;;10.00;8.00;;;;;23.90;42.86;102196.75;4938475;28;45872;-79
2024/03/22 02:26:40;;;;;;;;;7.67;7.67;;;;;23.83;42.76;102182.44;4938383;28;46265;-79
2024/03/22 02:29:06;;;;;;;;;10.00;9.33;;;;;23.85;42.91;102178.63;4938373;28;45198;-79
2024/03/22 02:31:32;;;;;;;;;9.67;7.33;;;;;23.70;43.14;102143.00;4937601;28;46724;-79
2024/03/22 02:33:57;;;;;;;;;7.33;7.00;;;;;23.87;42.91;102173.13;4938120;28;45273;-79
2024/03/22 02:36:23;;;;;;;;;8.33;8.33;;;;;23.92;42.81;102177.97;4937952;28;45331;-79
2024/03/22 02:38:48;;;;;;;;;7.33;7.33;;;;;23.86;42.78;102168.81;4904349;28;45373;-79
2024/03/22 02:41:13;;;;;;;;;9.33;8.33;;;;;23.91;43.31;102176.31;4919298;28;46168;-80
2024/03/22 02:43:39;;;;;;;;;8.67;8.00;;;;;23.92;42.97;102172.66;4937860;28;45418;-80
2024/03/22 02:46:04;;;;;;;;;7.33;7.33;;;;;23.92;42.87;102176.13;4937756;28;45358;-79
2024/03/22 02:48:31;;;;;;;;;7.67;7.33;;;;;23.91;43.38;102171.84;4937981;28;45692;-79
2024/03/22 02:50:57;;;;;;;;;9.00;8.00;;;;;23.90;43.16;102170.16;4937466;28;46374;-80
2024/03/22 02:53:23;;;;;;;;;7.00;7.00;;;;;23.83;42.98;102158.50;4938021;28;45498;-79
2024/03/22 02:55:48;;;;;;;;;10.00;7.00;;;;;23.83;43.25;102150.53;4937895;28;45443;-79
2024/03/22 02:58:14;;;;;;;;;9.00;7.67;;;;;23.80;43.07;102149.03;4938032;28;45496;-80
2024/03/22 03:00:39;;;;;;;;;8.67;8.67;;;;;23.80;43.01;102148.19;4937320;28;46305;-79
2024/03/22 03:03:06;;;;;;;;;7.00;7.00;;;;;23.83;42.99;102150.53;4937715;28;45355;-79
2024/03/22 03:05:31;;;;;;;;;9.00;7.00;;;;;23.79;43.47;102138.53;4937903;28;45300;-79
2024/03/22 03:07:56;;;;;;;;;12.00;10.00;;;;;23.87;43.17;102157.19;4937689;28;45387;-79
2024/03/22 03:10:22;;;;;;;;;8.00;7.67;;;;;23.89;42.97;102155.19;4937484;28;45411;-79
2024/03/22 03:12:47;;;;;;;;;7.33;7.33;;;;;23.89;43.19;102151.72;4937668;28;45313;-79
2024/03/22 03:15:12;;;;;;;;;10.00;8.67;;;;;23.87;43.02;102151.88;4936198;28;45489;-79
2024/03/22 03:17:38;;;;;;;;;10.00;9.00;;;;;23.86;42.96;102150.22;4936290;28;45302;-79
2024/03/22 03:20:07;;;;;;;;;8.00;8.00;;;;;23.89;43.13;102157.03;4937632;28;45315;-79
2024/03/22 03:22:34;;;;;;;;;8.00;8.00;;;;;23.89;43.01;102149.88;4937392;28;45383;-79
2024/03/22 03:24:59;;;;;;;;;9.33;9.00;;;;;23.78;42.88;102132.41;4937387;28;45374;-80
2024/03/22 03:27:24;;;;;;;;;11.00;7.00;;;;;23.85;43.30;102140.56;4937414;28;45377;-80
2024/03/22 03:29:50;;;;;;;;;7.67;7.67;;;;;23.88;43.14;102134.94;4937060;28;45270;-80
2024/03/22 03:32:15;;;;;;;;;9.33;8.00;;;;;23.81;42.90;102120.63;4937108;28;50844;-80
2024/03/22 03:34:40;;;;;;;;;8.00;8.00;;;;;23.79;42.96;102119.94;4937493;28;45314;-80
2024/03/22 03:37:06;;;;;;;;;8.00;7.67;;;;;23.88;42.98;102134.94;4930656;28;45306;-79
2024/03/22 03:39:31;;;;;;;;;11.67;8.00;;;;;23.87;43.28;102133.25;4898829;28;46449;-80
2024/03/22 03:41:56;;;;;;;;;11.33;9.33;;;;;23.87;43.42;102138.56;4929898;28;45296;-79
2024/03/22 03:44:22;;;;;;;;;13.33;8.67;;;;;23.83;43.20;102124.81;4937003;28;45322;-80
2024/03/22 03:46:47;;;;;;;;;8.33;7.33;;;;;23.84;42.86;102126.44;4937325;28;45223;-80
2024/03/22 03:49:12;;;;;;;;;8.67;8.67;;;;;23.84;43.00;102118.47;4937010;28;45983;-80
2024/03/22 03:51:38;;;;;;;;;10.00;7.67;;;;;23.79;43.04;102111.97;4937109;28;45378;-79
2024/03/22 03:54:03;;;;;;;;;9.00;8.33;;;;;23.78;42.82;102113.81;4937203;28;45366;-80
2024/03/22 03:56:29;;;;;;;;;8.67;6.67;;;;;23.89;42.98;102122.50;4937146;28;45695;-79
2024/03/22 03:58:54;;;;;;;;;9.67;7.67;;;;;23.87;43.03;102112.00;4936656;28;46098;-79
2024/03/22 04:01:20;;;;;;;;;8.00;7.00;;;;;23.84;42.82;102101.69;4937175;28;45364;-79
2024/03/22 04:03:45;;;;;;;;;10.00;8.33;;;;;23.85;42.69;102098.06;4940533;28;45426;-80
2024/03/22 04:06:10;;;;;;;;;9.00;8.00;;;;;23.81;43.04;102088.75;4940238;28;45354;-79
2024/03/22 04:08:36;;;;;;;;;7.00;7.00;;;;;23.81;43.15;102084.25;4940341;28;45324;-79
2024/03/22 04:11:02;;;;;;;;;8.67;8.00;;;;;23.88;42.96;102092.41;4940276;28;45680;-80
2024/03/22 04:13:28;;;;;;;;;6.00;6.00;;;;;23.89;42.97;102095.91;4939964;28;45393;-79
2024/03/22 04:15:54;;;;;;;;;9.67;7.33;;;;;23.88;42.91;102102.22;4940109;28;45564;-79
2024/03/22 04:18:20;;;;;;;;;7.67;7.67;;;;;23.84;43.09;102097.22;4940041;28;46183;-79
2024/03/22 04:20:56;;;;;;;;;10.00;8.00;;;;;23.87;42.98;102097.88;4940077;28;45434;-80
2024/03/22 04:23:22;;;;;;;;;11.50;8.00;;;;;23.87;42.97;102092.56;4940380;28;45382;-79
2024/03/22 04:25:55;;;;;;;;;8.67;8.67;;;;;23.78;43.08;102084.59;4939950;28;45313;-79
2024/03/22 04:28:20;;;;;;;;;8.00;7.00;;;;;23.85;43.17;102093.56;4939586;28;45582;-81
2024/03/22 04:31:02;;;;;;;;;10.67;9.67;;;;;23.81;43.18;102080.78;4939897;28;45370;-79
2024/03/22 04:33:29;;;;;;;;;9.00;7.67;;;;;23.84;43.23;102093.72;4940129;28;45396;-80
2024/03/22 04:35:56;;;;;;;;;8.67;8.67;;;;;23.82;43.22;102082.41;4940061;28;45691;-80
2024/03/22 04:38:25;;;;;;;;;12.67;8.00;;;;;23.84;43.13;102085.75;4912952;28;46374;-81
2024/03/22 04:40:50;;;;;;;;;7.67;7.67;;;;;23.85;42.81;102084.75;4915066;28;45379;-80
2024/03/22 04:43:16;;;;;;;;;12.00;8.00;;;;;23.85;42.82;102084.75;4939475;28;45258;-81
2024/03/22 04:45:42;;;;;;;;;8.33;8.33;;;;;23.85;43.09;102082.09;4939712;28;45327;-80
2024/03/22 04:48:08;;;;;;;;;7.67;6.00;;;;;23.84;43.33;102069.78;4939741;28;46108;-80
2024/03/22 04:50:33;;;;;;;;;9.33;8.00;;;;;23.61;43.13;102042.03;4939457;28;45382;-80
2024/03/22 04:52:58;;;;;;;;;7.00;7.00;;;;;23.84;42.97;102077.78;4939667;28;46119;-80
2024/03/22 04:55:24;;;;;;;;;8.00;8.00;;;;;23.74;43.13;102052.19;4939579;28;45360;-79
2024/03/22 04:57:49;;;;;;;;;8.00;8.00;;;;;23.79;42.88;102064.97;4939292;28;46322;-80
2024/03/22 05:00:15;;;;;;;;;7.67;7.67;;;;;23.83;42.82;102069.00;4939635;28;45298;-80
2024/03/22 05:02:41;;;;;;;;;7.00;7.00;;;;;23.81;43.01;102062.97;4939599;28;45223;-80
2024/03/22 05:05:07;;;;;;;;;10.67;9.00;;;;;23.84;43.00;102067.97;4939579;28;45306;-80
2024/03/22 05:07:33;;;;;;;;;6.33;6.33;;;;;23.78;42.97;102065.16;4939310;28;47055;-80
2024/03/22 05:09:58;;;;;;;;;7.00;6.00;;;;;23.78;42.79;102067.81;4939109;28;45343;-77
2024/03/22 05:12:24;;;;;;;;;8.33;8.00;;;;;23.69;42.86;102051.00;4939482;28;45394;-80
2024/03/22 05:14:49;;;;;;;;;11.33;8.67;;;;;23.83;42.77;102073.47;4939384;28;45435;-80
2024/03/22 05:17:14;;;;;;;;;7.33;7.00;;;;;23.83;42.74;102082.28;4939120;28;49472;-79
2024/03/22 05:19:39;;;;;;;;;7.00;7.00;;;;;23.60;42.60;102047.50;4939131;28;45377;-80
2024/03/22 05:22:06;;;;;;;;;5.67;5.33;;;;;23.85;42.76;102085.59;4939343;28;45405;-80
2024/03/22 05:24:31;;;;;;;;;7.67;7.00;;;;;23.84;42.97;102091.06;4938827;28;45424;-79
2024/03/22 05:26:57;;;;;;;;;7.33;6.67;;;;;23.85;42.78;102087.41;4938801;28;47036;-80
2024/03/22 05:29:23;;;;;;;;;8.67;6.33;;;;;23.85;42.44;102080.28;4939166;28;45341;-79
2024/03/22 05:31:51;;;;;;;;;9.00;8.00;;;;;23.82;42.85;102080.59;4939142;28;45323;-80
2024/03/22 05:34:16;;;;;;;;;9.33;7.33;;;;;23.80;42.89;102065.81;4939059;28;45448;-79
2024/03/22 05:36:42;;;;;;;;;8.00;8.00;;;;;23.84;42.81;102081.25;4938327;28;45993;-80
2024/03/22 05:39:08;;;;;;;;;6.67;6.67;;;;;23.81;42.93;102070.94;4900208;29;45403;-79
2024/03/22 05:41:33;;;;;;;;;7.33;6.67;;;;;23.77;42.74;102068.78;4925608;28;45482;-80
2024/03/22 05:43:59;;;;;;;;;7.67;6.67;;;;;23.72;42.90;102056.00;4938943;28;45386;-80
2024/03/22 05:46:24;;;;;;;;;7.67;6.67;;;;;23.77;43.25;102066.13;4938686;28;46078;-80
2024/03/22 05:48:51;;;;;;;;;5.67;5.67;;;;;23.83;43.05;102070.81;4938884;28;45372;-80
2024/03/22 05:51:17;;;;;;;;;8.00;7.67;;;;;23.78;42.82;102062.50;4938967;28;45501;-80
2024/03/22 05:53:42;;;;;;;;;6.33;6.00;;;;;23.77;42.88;102059.00;4938303;28;45473;-79
2024/03/22 05:56:08;;;;;;;;;7.00;7.00;;;;;23.82;42.90;102062.00;4938516;28;46253;-80
2024/03/22 05:58:34;;;;;;;;;7.00;7.00;;;;;23.79;43.25;102057.00;4938570;28;45326;-80
2024/03/22 06:00:59;;;;;;;;;7.00;6.00;;;;;23.71;42.96;102039.22;4937541;28;45242;-80
2024/03/22 06:03:25;;;;;;;;;7.33;7.00;;;;;23.72;42.49;102045.38;4938580;28;45429;-80
2024/03/22 06:05:54;;;;;;;;;7.67;7.00;;;;;23.82;42.87;102053.19;4938433;28;45317;-80
2024/03/22 06:08:20;;;;;;;;;8.00;7.00;;;;;23.81;43.21;102044.38;4938065;28;45417;-80
2024/03/22 06:10:45;;;;;;;;;8.67;7.00;;;;;23.76;42.73;102036.06;4938450;28;45337;-79
2024/03/22 06:13:10;;;;;;;;;9.00;7.00;;;;;23.76;42.88;102029.94;4938462;28;45373;-80
2024/03/22 06:15:36;;;;;;;;;8.00;7.67;;;;;23.68;42.76;102010.31;4938340;28;47201;-80
2024/03/22 06:18:01;;;;;;;;;10.67;8.00;;;;;23.78;42.66;102028.78;4938511;28;45457;-80
2024/03/22 06:20:27;;;;;;;;;4.33;4.33;;;;;23.61;42.59;102004.81;4938442;28;45401;-80
2024/03/22 06:22:52;;;;;;;;;6.67;6.00;;;;;23.77;42.38;102026.28;4938128;28;45499;-80
2024/03/22 06:25:17;;;;;;;;;8.33;7.00;;;;;23.83;42.72;102028.28;4937445;28;47921;-80
2024/03/22 06:27:42;;;;;;;;;8.33;8.33;;;;;23.83;42.84;102023.81;4953112;28;45835;-80
2024/03/22 06:30:08;;;;;;;;;9.25;8.00;;;;;23.84;42.83;102024.63;4938464;28;45540;-79
2024/03/22 06:32:34;;;;;;;;;8.67;7.67;;;;;23.72;42.32;102003.69;4938222;28;45472;-80
2024/03/22 06:34:59;;;;;;;;;5.33;5.33;;;;;23.74;42.37;102001.69;4937992;28;46401;-80
2024/03/22 06:37:24;;;;;;;;;5.00;5.00;;;;;23.81;42.57;102019.66;4925707;28;45615;-80
2024/03/22 06:39:50;;;;;;;;;6.00;6.00;;;;;23.83;42.54;102013.19;4899968;29;45388;-80
2024/03/22 06:42:15;;;;;;;;;9.33;8.67;;;;;23.56;42.57;101967.28;4935746;28;45282;-81
2024/03/22 06:44:41;;;;;;;;;6.67;5.33;;;;;23.84;42.55;102008.66;4937958;28;45209;-80
2024/03/22 06:47:06;;;;;;;;;7.67;7.67;;;;;23.75;42.50;101999.88;4937912;28;45371;-79
2024/03/22 06:49:32;;;;;;;;;7.00;6.33;;;;;23.84;42.49;102012.16;4937965;28;45437;-80
2024/03/22 06:51:57;;;;;;;;;8.00;6.33;;;;;23.69;42.65;101997.84;4937605;28;45513;-80
2024/03/22 06:54:23;;;;;;;;;8.33;7.00;;;;;23.85;42.28;102023.63;4937635;28;48257;-80
2024/03/22 06:56:48;;;;;;;;;5.67;5.67;;;;;23.83;42.48;102022.97;4936364;28;45649;-80
2024/03/22 06:59:13;;;;;;;;;9.00;8.00;;;;;23.84;42.42;102025.47;4938240;28;45369;-80
2024/03/22 07:01:39;;;;;;;;;9.00;7.33;;;;;23.80;42.50;102010.84;4937891;28;45354;-80
2024/03/22 07:04:04;;;;;;;;;7.00;6.00;;;;;23.85;42.50;102020.97;4937782;28;45426;-81
2024/03/22 07:06:30;;;;;;;;;9.33;7.67;;;;;23.80;42.42;102012.66;4937311;28;45405;-81
2024/03/22 07:08:55;;;;;;;;;10.00;9.00;;;;;23.71;42.33;101995.88;4938074;28;45486;-82
2024/03/22 07:11:22;;;;;;;;;5.00;5.00;;;;;23.80;42.53;102016.16;4937848;28;45428;-80
2024/03/22 07:13:47;;;;;;;;;8.67;8.00;;;;;23.83;42.46;102021.16;4937644;28;46184;-77
2024/03/22 07:16:13;;;;;;;;;7.33;6.67;;;;;23.84;42.56;102022.81;4918160;28;45455;-78
2024/03/22 07:18:38;;;;;;;;;0.00;0.00;;;;;23.85;42.93;102015.66;4918564;28;45285;-77
2024/03/22 07:21:04;;;;;;;;;9.00;7.67;;;;;23.82;43.09;102014.16;4918180;28;45529;-80
2024/03/22 07:23:29;;;;;;;;;6.67;6.67;;;;;23.85;43.35;102026.28;4918055;28;46037;-78
2024/03/22 07:25:55;;;;;;;;;9.00;7.67;;;;;23.86;43.30;102020.00;4909326;28;45284;-76
2024/03/22 07:28:21;;;;;;;;;8.00;7.00;;;;;23.85;43.13;102016.50;4907190;28;45294;-77
2024/03/22 07:30:47;;;;;;;;;6.33;6.33;;;;;23.86;43.78;102017.34;4908328;28;45287;-82
2024/03/22 07:33:13;;;;;;;;;7.67;6.67;;;;;23.86;43.12;102006.72;4917229;28;46358;-90
2024/03/22 07:35:39;;;;;;;;;8.33;7.00;;;;;23.84;43.57;102006.84;4915630;28;45352;-79
2024/03/22 07:38:04;;;;;;;;;9.00;8.00;;;;;23.87;43.64;102020.81;4920499;28;45514;-79
2024/03/22 07:40:30;;;;;;;;;6.67;5.00;;;;;23.88;43.56;102012.69;4925639;28;45498;-79
2024/03/22 07:42:55;;;;;;;;;7.00;6.00;;;;;23.88;43.80;102017.16;4940685;28;45483;-79
2024/03/22 07:45:20;;;;;;;;;7.00;7.00;;;;;23.88;43.73;102023.31;4940624;28;45433;-79
2024/03/22 07:47:46;;;;;;;;;8.33;6.33;;;;;23.87;43.53;102018.13;4940857;28;45389;-79
2024/03/22 07:50:11;;;;;;;;;10.33;8.67;;;;;23.87;43.55;102013.66;4940292;28;45327;-80
2024/03/22 07:52:37;;;;;;;;;7.67;7.33;;;;;23.87;43.28;102010.16;4940666;28;45502;-79
2024/03/22 07:55:02;;;;;;;;;10.67;9.00;;;;;23.85;43.41;102003.22;4940439;28;45420;-78
2024/03/22 07:57:30;;;;;;;;;7.67;7.67;;;;;23.83;43.54;101997.22;4940600;28;45396;-79
2024/03/22 07:59:57;;;;;;;;;8.00;6.00;;;;;23.83;43.55;102005.22;4940556;28;45514;-77
2024/03/22 08:02:22;;;;;;;;;9.00;5.33;;;;;23.85;43.58;102013.00;4940242;28;46985;-80
2024/03/22 08:04:48;;;;;;;;;9.00;9.00;;;;;23.74;43.46;101991.06;4939987;28;45339;-79
2024/03/22 08:07:14;;;;;;;;;8.00;8.00;;;;;23.81;43.67;102004.50;4940489;28;45377;-79
2024/03/22 08:09:39;;;;;;;;;8.00;8.00;;;;;23.88;43.09;102023.31;4940268;28;45412;-79
2024/03/22 08:12:06;;;;;;;;;10.00;9.00;;;;;23.88;43.09;102031.28;4940190;28;46342;-79
2024/03/22 08:14:31;;;;;;;;;7.67;6.33;;;;;23.85;42.87;102013.84;4940170;28;45446;-80
2024/03/22 08:16:57;;;;;;;;;7.67;6.00;;;;;23.85;43.35;102018.31;4940238;28;45359;-80
2024/03/22 08:19:22;;;;;;;;;8.00;7.00;;;;;23.88;42.97;102018.00;4939939;28;45352;-81
2024/03/22 08:21:48;;;;;;;;;9.67;9.67;;;;;23.87;43.30;102005.69;4940118;28;45318;-79
2024/03/22 08:24:13;;;;;;;;;10.33;9.33;;;;;23.81;43.04;101993.06;4940051;28;45326;-79
2024/03/22 08:26:38;;;;;;;;;8.33;8.33;;;;;23.80;42.78;101989.59;4940013;28;45371;-79
2024/03/22 08:29:05;;;;;;;;;8.67;7.33;;;;;23.81;43.07;101988.56;4940217;28;45247;-80
2024/03/22 08:31:30;;;;;;;;;9.67;8.00;;;;;23.89;43.31;102000.22;4938514;28;47874;-79
2024/03/22 08:33:56;;;;;;;;;8.00;8.00;;;;;23.81;43.30;101985.91;4939694;28;45213;-79
2024/03/22 08:36:23;;;;;;;;;8.00;8.00;;;;;23.89;43.49;101998.38;4939976;28;45460;-79
2024/03/22 08:38:49;;;;;;;;;8.33;7.00;;;;;23.80;43.32;101978.13;4905927;28;45330;-80
2024/03/22 08:41:14;;;;;;;;;7.00;7.00;;;;;23.87;43.07;101984.44;4921165;28;46405;-80
2024/03/22 08:43:39;;;;;;;;;10.00;6.33;;;;;23.81;43.34;101972.63;4939787;28;45438;-80
2024/03/22 08:46:05;;;;;;;;;10.67;10.00;;;;;23.80;43.23;101960.34;4939795;28;45438;-80
2024/03/22 08:48:30;;;;;;;;;7.00;7.00;;;;;23.88;43.18;101983.44;4939048;28;45368;-79
2024/03/22 08:50:56;;;;;;;;;8.33;7.00;;;;;23.78;43.00;101967.66;4954423;28;48312;-80
2024/03/22 08:53:21;;;;;;;;;8.00;7.00;;;;;23.90;43.32;101991.25;4939666;28;45354;-79
2024/03/22 08:55:47;;;;;;;;;9.33;8.33;;;;;23.91;42.92;101987.59;4938073;28;50562;-79
2024/03/22 08:58:14;;;;;;;;;9.00;8.67;;;;;23.88;43.27;101974.63;4939753;28;45533;-79
2024/03/22 09:00:43;;;;;;;;;6.00;6.00;;;;;23.92;42.75;101978.63;4939954;28;45373;-80
2024/03/22 09:03:09;;;;;;;;;10.00;7.67;;;;;23.87;42.99;101971.16;4938961;28;45430;-80
2024/03/22 09:05:34;;;;;;;;;9.67;8.00;;;;;23.81;42.96;101954.03;4938748;28;45442;-80
2024/03/22 09:08:00;;;;;;;;;10.67;8.00;;;;;23.89;43.27;101963.81;4939434;28;45584;-80
2024/03/22 09:10:26;;;;;;;;;8.00;8.00;;;;;23.99;43.15;101973.47;4939228;28;45321;-80
2024/03/22 09:12:51;;;;;;;;;7.67;6.33;;;;;24.02;43.15;101981.94;4939118;28;45365;-80
2024/03/22 09:15:17;;;;;;;;;7.33;7.00;;;;;23.98;43.10;101961.19;4939428;28;45341;-80
2024/03/22 09:17:42;;;;;;;;;7.33;7.33;;;;;24.07;43.12;101963.66;4932122;28;45575;-80
2024/03/22 09:20:08;;;;;;;;;7.00;7.00;;;;;24.11;43.08;101968.66;4910108;28;46242;-80
2024/03/22 09:22:33;;;;;;;;;8.33;7.33;;;;;24.11;42.65;101956.19;4911775;28;45518;-79
2024/03/22 09:24:59;;;;;;;;;7.67;7.67;;;;;24.19;42.99;101960.66;4910802;28;45917;-79
2024/03/22 09:27:24;;;;;;;;;7.33;7.00;;;;;24.22;43.00;101951.53;4919954;28;45382;-80
2024/03/22 09:29:49;;;;;;;;;9.00;6.67;;;;;24.23;42.97;101948.69;4919675;28;47187;-84
2024/03/22 09:32:15;;;;;;;;;9.67;8.33;;;;;24.27;42.92;101951.88;4919667;28;45266;-81
2024/03/22 09:34:40;;;;;;;;;7.33;5.67;;;;;24.24;42.72;101941.56;4919948;28;45226;-81
2024/03/22 09:37:06;;;;;;;;;8.00;8.00;;;;;24.30;42.61;101943.59;4919818;28;45164;-81
2024/03/22 09:39:32;;;;;;;;;13.33;7.67;;;;;24.44;42.57;101965.97;4919470;28;46128;-81
2024/03/22 09:41:59;;;;;;;;;10.00;10.00;;;;;24.46;42.39;101957.84;4935273;28;45292;-81
2024/03/22 09:44:27;;;;;;;;;7.00;7.00;;;;;24.48;42.50;101950.53;4932319;28;45477;-81
2024/03/22 09:46:53;;;;;;;;;7.67;7.67;;;;;24.48;42.39;101942.53;4919304;28;45547;-79
2024/03/22 09:49:19;;;;;;;;;7.00;7.00;;;;;24.61;42.13;101953.47;4919322;28;47203;-79
2024/03/22 09:51:47;;;;;;;;;8.00;7.00;;;;;24.65;42.14;101951.28;4919572;28;45405;-79
2024/03/22 09:54:12;;;;;;;;;11.00;8.00;;;;;24.43;42.02;101907.63;4919427;28;45498;-78
2024/03/22 09:56:42;;;;;;;;;10.33;7.67;;;;;24.73;41.99;101947.78;4919432;28;45285;-78
2024/03/22 09:59:08;;;;;;;;;6.00;6.00;;;;;24.65;42.26;101929.16;4918483;28;46430;-78
2024/03/22 10:01:35;;;;;;;;;8.00;7.00;;;;;24.73;41.99;101929.16;4918929;28;45396;-77
2024/03/22 10:04:00;;;;;;;;;7.00;7.00;;;;;24.82;41.71;101935.28;4916799;28;45182;-81
2024/03/22 10:06:26;;;;;;;;;7.33;6.00;;;;;24.68;41.66;101910.19;4906891;28;45371;-79
2024/03/22 10:08:53;;;;;;;;;8.67;8.67;;;;;24.72;41.77;101906.22;4900282;29;46168;-80
2024/03/22 10:11:18;;;;;;;;;8.33;7.33;;;;;24.48;41.34;101855.59;4900274;28;45383;-80
2024/03/22 10:13:44;;;;;;;;;6.00;6.00;;;;;24.82;41.30;101906.84;4900099;28;45368;-79
2024/03/22 10:16:09;;;;;;;;;9.00;9.00;;;;;24.87;41.43;101908.13;4899782;28;45543;-79
2024/03/22 10:18:34;;;;;;;;;9.00;9.00;;;;;24.76;41.14;101893.38;4900810;28;45405;-86
2024/03/22 10:21:01;;;;;;;;;9.00;7.67;;;;;24.84;41.07;101898.66;4903220;28;45500;-86
2024/03/22 10:23:26;;;;;;;;;7.00;6.00;;;;;24.90;41.02;101913.94;4901560;28;45375;-82
2024/03/22 10:25:52;;;;;;;;;6.00;4.67;;;;;24.66;41.30;101865.16;4900045;28;45294;-81
2024/03/22 10:28:17;;;;;;;;;7.00;6.00;;;;;24.96;40.91;101905.25;4900159;28;45503;-86
2024/03/22 10:30:44;;;;;;;;;7.33;5.00;;;;;24.90;40.74;101891.81;4901003;28;45441;-77
2024/03/22 10:33:10;;;;;;;;;7.00;7.00;;;;;24.90;40.83;101892.66;4900142;28;45442;-78
2024/03/22 10:35:36;;;;;;;;;8.00;6.67;;;;;24.99;40.65;101900.56;4899668;28;45339;-77
2024/03/22 10:38:03;;;;;;;;;7.00;7.00;;;;;24.93;40.55;101891.47;4899923;28;45315;-83
2024/03/22 10:40:29;;;;;;;;;8.67;7.33;;;;;25.00;40.65;101895.09;4907281;28;45387;-81
2024/03/22 10:42:54;;;;;;;;;7.00;6.67;;;;;24.87;40.68;101861.06;4938593;28;45539;-83
2024/03/22 10:45:25;;;;;;;;;7.67;7.67;;;;;24.93;40.49;101870.19;4937853;28;45422;-83
2024/03/22 10:47:55;;;;;;;;;8.00;6.67;;;;;24.90;40.31;101852.72;4937968;28;46649;-83
2024/03/22 10:50:26;;;;;;;;;7.67;5.67;;;;;24.98;40.25;101864.31;4937826;28;45367;-84
2024/03/22 10:52:58;;;;;;;;;6.33;5.33;;;;;25.01;39.92;101870.13;4937953;28;45468;-83
2024/03/22 10:55:46;;;;;;;;;6.00;5.00;;;;;25.01;40.48;101864.81;4938070;28;45365;-83
2024/03/22 10:58:21;;;;;;;;;6.67;5.00;;;;;24.98;38.59;101854.50;4917746;28;46395;-81
2024/03/22 11:00:47;;;;;;;;;4.00;2.33;;;;;24.84;37.06;101834.78;4900179;29;45244;-84
2024/03/22 11:03:15;;;;;;;;;6.67;4.33;;;;;24.83;36.51;101841.09;4900062;28;45324;-82
2024/03/22 11:05:47;;;;;;;;;5.67;5.67;;;;;24.69;36.12;101832.88;4899691;28;45282;-83
2024/03/22 11:08:22;;;;;;;;;5.67;5.67;;;;;24.64;36.21;101835.22;4900285;28;46500;-86
2024/03/22 11:10:47;;;;;;;;;3.00;3.00;;;;;24.60;36.59;101841.88;4907204;28;45416;-82
2024/03/22 11:13:16;;;;;;;;;6.00;5.00;;;;;24.46;36.26;101819.53;4898751;28;45474;-81
2024/03/22 11:15:41;;;;;;;;;4.67;4.67;;;;;24.48;36.00;101825.50;4899058;28;45453;-80
2024/03/22 11:18:07;;;;;;;;;6.33;6.33;;;;;24.51;35.49;101827.81;4899053;28;46522;-81